Menu

In Person Flight Instructor Refresher Courses

Air Safety Institute Logo

Welcome

Flight Instructor Refresher Course

The AOPA Air Safety Institute In-Person Flight Instructor Refresher Course gives you the opportunity to renew your flight instructor certificate together with other flight instructors in your area. The two day course is led by expert presenters who are knowledgeable and engaging. Not only will you refresh your knowledge and pick up some new information, but you will also be able to network with other local professional pilots.

Location Start Time End Time State Latitude Longitude cssIndex Topic cssIndex
Atlanta, GA 04-01-2017 7:30 AM 04-02-2017 5:00 PM Learn More Georgia 33.654829000000000 -84.429079000000000 1 mtgFlightInstructorRefresherCourse FIRC_GA_170401
Dedham, MA 04-01-2017 7:30 AM 04-02-2017 5:00 PM Learn More Massachusetts 42.232028000000000 -71.182748000000000 1 mtgFlightInstructorRefresherCourse FIRC_MA_170401
Dulles, VA 04-01-2017 7:30 AM 04-02-2017 5:00 PM Learn More Virginia 38.985093000000000 -77.429156000000000 1 mtgFlightInstructorRefresherCourse FIRC_VA_170401
Indianapolis, IN 04-01-2017 7:30 AM 04-02-2017 5:00 PM Learn More Indiana 39.729767000000000 -86.269647000000000 1 mtgFlightInstructorRefresherCourse FIRC_IN_170401
Tampa, FL 04-01-2017 7:30 AM 04-02-2017 5:00 PM Learn More Florida 27.951800000000000 -82.524300000000000 1 mtgFlightInstructorRefresherCourse FIRC_FL_170401
Denver, CO 04-08-2017 7:30 AM 04-09-2017 5:00 PM Learn More Colorado 39.773051000000000 -104.809523000000000 1 mtgFlightInstructorRefresherCourse FIRC_CO_170408
Salt Lake Cty, UT 04-08-2017 7:30 AM 04-09-2017 5:00 PM Learn More Utah 40.758613000000000 -111.895392000000000 1 mtgFlightInstructorRefresherCourse FIRC_UT_170408
San Diego, CA 04-08-2017 7:30 AM 04-09-2017 5:00 PM Learn More California 32.725703000000000 -117.223193000000000 1 mtgFlightInstructorRefresherCourse FIRC_CA_170408
Albany, NY 05-06-2017 7:30 AM 05-07-2017 5:00 PM Learn More New York 42.729775000000000 -73.798417000000000 1 mtgFlightInstructorRefresherCourse FIRC_NY_170506
Hollywood, FL 05-06-2017 7:30 AM 05-07-2017 5:00 PM Learn More Florida 26.033572000000000 -80.166006000000000 1 mtgFlightInstructorRefresherCourse FIRC_FL_170506
Pensacola, FL 05-06-2017 7:30 AM 05-07-2017 5:00 PM Learn More Florida 30.506773000000000 -87.221754000000000 1 mtgFlightInstructorRefresherCourse FIRC_FL_170506A
Conroe, TX 05-20-2017 7:30 AM 05-21-2017 5:00 PM Learn More Texas 30.340300000000000 -95.418900000000000 1 mtgFlightInstructorRefresherCourse FIRC_TX_170520
Kansas City, MO 05-20-2017 7:30 AM 05-21-2017 5:00 PM Learn More Missouri 39.311593000000000 -94.714616000000000 1 mtgFlightInstructorRefresherCourse FIRC_MO_170520
Sacramento, CA 05-20-2017 7:30 AM 05-21-2017 5:00 PM Learn More California 38.663058000000000 -121.355317000000000 1 mtgFlightInstructorRefresherCourse FIRC_CA_170520
Charlotte, NC 06-03-2017 7:30 AM 06-03-2017 8:30 AM Learn More North Carolina 35.239645000000000 -80.939408000000000 1 mtgFlightInstructorRefresherCourse FIRC_NC_170603
Columbus, OH 06-03-2017 7:30 AM 06-04-2017 5:00 PM Learn More Ohio 40.099986000000000 -82.987384000000000 1 mtgFlightInstructorRefresherCourse FIRC_OH_170603
Tempe, AZ 06-03-2017 7:30 AM 06-04-2017 5:00 PM Learn More Arizona 33.406821000000000 -111.960905000000000 1 mtgFlightInstructorRefresherCourse FIRC_AZ_170603
Lake Mary, FL 06-10-2017 7:30 AM 06-11-2017 5:00 PM Learn More Florida 28.758404000000000 -81.360415000000000 1 mtgFlightInstructorRefresherCourse FIRC_FL_170610
Santa Clara, CA 06-10-2017 7:30 AM 06-11-2017 5:00 PM Learn More California 37.382500000000000 -121.979300000000000 1 mtgFlightInstructorRefresherCourse FIRC_CA_170610
Ashburn, VA 06-24-2017 7:30 AM 06-25-2017 5:00 PM Learn More Virginia 39.012322000000000 -77.459647000000000 1 mtgFlightInstructorRefresherCourse FIRC_VA_170624
Bloomington, MN 06-24-2017 7:30 AM 06-25-2017 5:00 PM Learn More Minnesota 44.860127000000000 -93.245242000000000 1 mtgFlightInstructorRefresherCourse FIRC_MN_170624
Englewood, NJ 07-15-2017 7:30 AM 07-16-2017 5:00 PM Learn More New Jersey 40.884321000000000 -73.984827000000000 1 mtgFlightInstructorRefresherCourse FIRC_NJ_170715
Jacksonville, FL 07-15-2017 7:30 AM 07-16-2017 5:00 PM Learn More Florida 30.488858000000000 -81.679281000000000 1 mtgFlightInstructorRefresherCourse FIRC_FL_170715
Memphis, TN 07-22-2017 7:30 AM 07-23-2017 5:00 PM Learn More Tennessee 35.068903000000000 -89.988223000000000 1 mtgFlightInstructorRefresherCourse FIRC_TN_170722
Coraopolis, PA 07-22-2017 7:30 AM 07-23-2017 5:00 PM Learn More Pennsylvania 40.497207000000000 -80.206609000000000 1 mtgFlightInstructorRefresherCourse FIRC_PA_170722
Fort Worth, TX 08-05-2017 7:30 AM 08-06-2017 5:00 PM Learn More Texas 32.823115000000000 -97.056111000000000 1 mtgFlightInstructorRefresherCourse FIRC_TX_170805
Reno, NV 08-05-2017 7:30 AM 08-06-2017 5:00 PM Learn More Nevada 39.530088000000000 -119.814463000000000 1 mtgFlightInstructorRefresherCourse FIRC_NV_170805
Atlanta, GA 08-12-2017 7:30 AM 08-13-2017 5:00 PM Learn More Georgia 33.654829000000000 -84.429079000000000 1 mtgFlightInstructorRefresherCourse FIRC_GA_170812
Costa Mesa, CA 08-12-2017 7:30 AM 08-13-2017 5:00 PM Learn More California 33.685262000000000 -117.885804000000000 1 mtgFlightInstructorRefresherCourse FIRC_CA_170812
Allentown, PA 08-19-2017 7:30 AM 08-20-2017 5:00 PM Learn More Pennsylvania 40.602435000000000 -75.471976000000000 1 mtgFlightInstructorRefresherCourse FIRC_PA_170819
Elkridge, MD 09-09-2017 7:30 AM 09-10-2017 5:00 PM Learn More Maryland 39.184351000000000 -76.755569000000000 1 mtgFlightInstructorRefresherCourse FIRC_MD_170909
Sacramento, CA 09-09-2017 7:30 AM 09-10-2017 5:00 PM Learn More California 38.663058000000000 -121.355317000000000 1 mtgFlightInstructorRefresherCourse FIRC_CA_170909
Sandston, VA 09-16-2017 7:30 AM 09-17-2017 5:00 PM Learn More Virginia 37.524746000000000 -77.325863000000000 1 mtgFlightInstructorRefresherCourse FIRC_VA_170916
Colorado Springs, CO 09-23-2017 7:30 AM 09-24-2017 5:00 PM Learn More Colorado 38.796367000000000 -104.795605000000000 1 mtgFlightInstructorRefresherCourse FIRC_CO_170923
Tempe, AZ 09-23-2017 7:30 AM 09-24-2017 5:00 PM Learn More Arizona 33.406821000000000 -111.960905000000000 1 mtgFlightInstructorRefresherCourse FIRC_AZ_170923

Questions? Contact us at [email protected] or 800/USA-AOPA (800/872-2672)
Monday - Friday, 8:30 am - 6:00 pm ET